Weather at Gisborne Airport

Public forecast

Using degrees Celsius for public forecast. Weather courtesy of forecast.io.

Closest aviation weather report (METAR) to Gisborne Airport

Report is more than 6 hours old.

Closest report is RNZAF Base Ohakea, 151.7 nm (280.9 km) SW. Retrieved 2020/10/27 00:00 UTC (24 hours ago):

NZOH 270000Z 27006KT 240V320 5000 -SHRA SCT008 BKN012 OVC045 16/15 Q1022 BECMG 12020KT TEMPO 4000 RA BKN008

Closest aviation forecast (TAF) to Gisborne Airport

Forecast is more than 6 hours old.

Closest forecast is Auckland International Airport, 180.8 nm (334.9 km) WNW. Retrieved 2020/10/27 12:11 UTC (12 hours ago):

TAF NZAA 271108Z 2712/2812 VRB02KT 9999 FEW012 BKN020 TEMPO 2712/2719 BKN012 BECMG 2800/2802 04010KT TEMPO 2802/2809 4000 +SHRA FEW020TCU BECMG 2808/2810 VRB02KT